Time;durP1;ratioP1;P1;durP2;ratioP2;P2;SDS_P1;SDS_P2;PMS_P1;PMS_P2;Temp;Humidity;BMP_temperature;BMP_pressure;BME280_temperature;BME280_humidity;BME280_pressure;Samples;Min_cycle;Max_cycle;Signal;HPM_P1;HPM_P2
2023/05/04 00:01:30;;;;;;;;;;;;;;;19.64;53.30;101957.83;2322440;76;51512;-71
2023/05/04 00:04:35;;;;;;;;;;;;;;;19.65;53.29;101954.63;2296734;76;50398;-72
2023/05/04 00:07:37;;;;;;;;;;;;;;;19.64;53.34;101951.11;2199155;79;52738;-72
2023/05/04 00:10:39;;;;;;;;;;;;;;;19.64;53.32;101956.98;2176915;81;50408;-72
2023/05/04 00:13:40;;;;;;;;;;;;;;;19.65;53.25;101957.32;2200055;81;50766;-72
2023/05/04 00:16:42;;;;;;;;;;;;;;;19.66;53.25;101953.66;2199998;81;51455;-72
2023/05/04 00:19:45;;;;;;;;;;;;;;;19.66;53.23;101950.97;2176580;80;49552;-72
2023/05/04 00:22:47;;;;;;;;;;;;;;;19.64;53.41;101951.11;2199996;81;51637;-72
2023/05/04 00:25:48;;;;;;;;;;;;;;;19.64;53.45;101948.94;2199822;79;50371;-72
2023/05/04 00:28:50;;;;;;;;;;;;;;;19.62;53.47;101942.37;2179650;79;51541;-72
2023/05/04 00:31:51;;;;;;;;;;;;;;;19.63;53.51;101947.27;2145846;81;51572;-72
2023/05/04 00:34:53;;;;;;;;;;;;;;;19.62;53.43;101943.70;2195153;81;50301;-72
2023/05/04 00:37:55;;;;;;;;;;;;;;;19.63;53.37;101940.05;2133986;82;52202;-72
2023/05/04 00:40:59;;;;;;;;;;;;;;;19.62;53.34;101939.68;2195429;80;50335;-72
2023/05/04 00:44:03;;;;;;;;;;;;;;;19.64;53.34;101947.08;2180308;79;51898;-72
2023/05/04 00:47:04;;;;;;;;;;;;;;;19.63;53.36;101940.05;2222123;80;50441;-71
2023/05/04 00:50:07;;;;;;;;;;;;;;;19.62;53.46;101941.53;2222102;80;50477;-72
2023/05/04 00:53:10;;;;;;;;;;;;;;;19.63;53.46;101941.38;2222044;80;50803;-71
2023/05/04 00:56:12;;;;;;;;;;;;;;;19.62;53.45;101943.70;2176838;80;52567;-71
2023/05/04 00:59:13;;;;;;;;;;;;;;;19.63;53.32;101945.92;2229876;78;51596;-72
2023/05/04 01:02:15;;;;;;;;;;;;;;;19.62;53.45;101941.02;2207435;78;50848;-72
2023/05/04 01:05:16;;;;;;;;;;;;;;;19.61;53.49;101935.33;2239716;78;51494;-72
2023/05/04 01:08:18;;;;;;;;;;;;;;;19.62;53.55;101938.34;2252487;78;52616;-72
2023/05/04 01:11:20;;;;;;;;;;;;;;;19.62;53.47;101938.84;2266786;78;50323;-72
2023/05/04 01:14:22;;;;;;;;;;;;;;;19.61;53.46;101943.89;2266571;78;50823;-72
2023/05/04 01:17:23;;;;;;;;;;;;;;;19.63;53.43;101933.33;2243208;78;52559;-72
2023/05/04 01:20:25;;;;;;;;;;;;;;;19.64;53.29;101930.97;2218995;78;51697;-72
2023/05/04 01:23:27;;;;;;;;;;;;;;;19.66;53.29;101934.34;2266778;78;51517;-72
2023/05/04 01:26:29;;;;;;;;;;;;;;;19.65;53.26;101928.65;2266446;78;50775;-72
2023/05/04 01:29:32;;;;;;;;;;;;;;;19.66;53.25;101929.48;2251179;78;51556;-72
2023/05/04 01:32:33;;;;;;;;;;;;;;;19.63;53.29;101926.62;2227066;79;51675;-72
2023/05/04 01:35:35;;;;;;;;;;;;;;;19.61;53.37;101932.64;2253758;79;50350;-72
2023/05/04 01:38:37;;;;;;;;;;;;;;;19.62;53.32;101930.79;2253806;79;51539;-72
2023/05/04 01:41:40;;;;;;;;;;;;;;;19.60;53.49;101929.63;2275093;78;50270;-72
2023/05/04 01:44:41;;;;;;;;;;;;;;;19.61;53.34;101935.33;2253683;78;51782;-72
2023/05/04 01:47:43;;;;;;;;;;;;;;;19.62;53.40;101933.48;2265058;78;52345;-72
2023/05/04 01:50:45;;;;;;;;;;;;;;;19.61;53.36;101928.61;2233076;78;50666;-72
2023/05/04 01:53:46;;;;;;;;;;;;;;;19.60;53.39;101921.57;2265214;78;51519;-71
2023/05/04 01:56:48;;;;;;;;;;;;;;;19.63;53.25;101923.09;2232904;78;50801;-72
2023/05/04 01:59:49;;;;;;;;;;;;;;;19.61;53.36;101923.24;2228711;78;53554;-72
2023/05/04 02:02:51;;;;;;;;;;;;;;;19.61;53.34;101919.22;2268788;78;51568;-71
2023/05/04 02:05:53;;;;;;;;;;;;;;;19.61;53.32;101921.90;2248269;78;51469;-71
2023/05/04 02:08:54;;;;;;;;;;;;;;;19.59;53.35;101922.05;2224483;78;52392;-71
2023/05/04 02:11:56;;;;;;;;;;;;;;;19.58;53.52;101919.54;2281284;78;50289;-71
2023/05/04 02:14:57;;;;;;;;;;;;;;;19.57;53.64;101918.70;2248316;78;50299;-72
2023/05/04 02:17:59;;;;;;;;;;;;;;;19.58;53.66;101926.25;2248524;78;50427;-71
2023/05/04 02:21:00;;;;;;;;;;;;;;;19.59;53.53;101919.87;2211357;78;50159;-72
2023/05/04 02:24:05;;;;;;;;;;;;;;;19.60;53.45;101917.55;2281020;78;51493;-72
2023/05/04 02:27:05;;;;;;;;;;;;;;;19.61;53.62;101911.67;2249338;78;22401;-72
2023/05/04 02:30:08;;;;;;;;;;;;;;;19.60;53.42;101910.83;2265726;78;50758;-72
2023/05/04 02:33:10;;;;;;;;;;;;;;;19.59;53.52;101915.84;2203411;79;52513;-72
2023/05/04 02:36:11;;;;;;;;;;;;;;;19.59;53.54;101919.87;2212211;79;50743;-73
2023/05/04 02:39:13;;;;;;;;;;;;;;;19.60;53.55;101914.86;2212011;79;51517;-73
2023/05/04 02:42:15;;;;;;;;;;;;;;;19.59;53.46;101914.50;2212383;79;50320;-72
2023/05/04 02:45:16;;;;;;;;;;;;;;;19.59;53.50;101918.02;2188733;79;49593;-73
2023/05/04 02:48:18;;;;;;;;;;;;;;;19.58;53.57;101912.83;2244065;79;50366;-73
2023/05/04 02:51:19;;;;;;;;;;;;;;;19.58;53.58;101920.88;2244067;79;50465;-72
2023/05/04 02:54:21;;;;;;;;;;;;;;;19.58;53.45;101912.83;2243702;79;50499;-72
2023/05/04 02:57:23;;;;;;;;;;;;;;;19.58;53.41;101915.52;2188757;79;51544;-72
2023/05/04 03:00:24;;;;;;;;;;;;;;;19.56;53.63;101914.31;2212092;79;50797;-72
2023/05/04 03:03:26;;;;;;;;;;;;;;;19.59;53.64;101915.33;2210646;79;50280;-72
2023/05/04 03:06:27;;;;;;;;;;;;;;;19.58;53.42;101910.14;2209937;79;50404;-72
2023/05/04 03:09:29;;;;;;;;;;;;;;;19.57;53.52;101911.98;2241838;79;50335;-72
2023/05/04 03:12:31;;;;;;;;;;;;;;;19.58;53.38;101911.48;2241909;79;50339;-72
2023/05/04 03:15:32;;;;;;;;;;;;;;;19.55;53.61;101913.98;2210255;79;50690;-72
2023/05/04 03:18:34;;;;;;;;;;;;;;;19.59;53.47;101910.47;2242310;79;50673;-72
2023/05/04 03:21:35;;;;;;;;;;;;;;;19.58;53.53;101907.45;2186950;79;51737;-72
2023/05/04 03:24:38;;;;;;;;;;;;;;;19.58;53.39;101911.48;2243384;79;50688;-72
2023/05/04 03:27:40;;;;;;;;;;;;;;;19.59;53.36;101903.76;2211045;79;50753;-72
2023/05/04 03:30:41;;;;;;;;;;;;;;;19.58;53.45;101911.48;2220358;78;51485;-72
2023/05/04 03:33:43;;;;;;;;;;;;;;;19.58;53.56;101906.11;2227676;78;51136;-72
2023/05/04 03:36:44;;;;;;;;;;;;;;;19.58;53.60;101907.45;2253998;78;50118;-72
2023/05/04 03:39:46;;;;;;;;;;;;;;;19.58;53.55;101908.80;2275352;78;50478;-72
2023/05/04 03:42:48;;;;;;;;;;;;;;;19.58;53.57;101912.83;2285957;76;50766;-71
2023/05/04 03:45:50;;;;;;;;;;;;;;;19.58;53.51;101910.14;2237875;79;50367;-73
2023/05/04 03:48:51;;;;;;;;;;;;;;;19.57;53.46;101906.62;2276117;78;50210;-73
2023/05/04 03:51:53;;;;;;;;;;;;;;;19.58;53.50;101901.58;2233929;78;50709;-72
2023/05/04 03:54:54;;;;;;;;;;;;;;;19.58;53.39;101902.92;2235822;78;50693;-73
2023/05/04 03:57:56;;;;;;;;;;;;;;;19.58;53.38;101896.72;2209077;78;52601;-72
2023/05/04 04:00:57;;;;;;;;;;;;;;;19.57;53.27;101897.22;2223332;78;51471;-72
2023/05/04 04:03:59;;;;;;;;;;;;;;;19.56;53.29;101900.89;2270452;78;51527;-72
2023/05/04 04:07:01;;;;;;;;;;;;;;;19.56;53.25;101905.42;2275210;78;51679;-74
2023/05/04 04:10:03;;;;;;;;;;;;;;;19.57;53.34;101908.44;2288952;77;50790;-71
2023/05/04 04:13:05;;;;;;;;;;;;;;;19.56;53.28;101912.97;2288724;77;51595;-71
2023/05/04 04:16:06;;;;;;;;;;;;;;;19.56;53.41;101904.92;2260602;78;50337;-72
2023/05/04 04:19:08;;;;;;;;;;;;;;;19.56;53.50;101902.23;2264567;78;51472;-74
2023/05/04 04:22:09;;;;;;;;;;;;;;;19.56;53.36;101902.23;2264625;78;52453;-73
2023/05/04 04:25:11;;;;;;;;;;;;;;;19.56;53.28;101896.03;2260476;78;51509;-72
2023/05/04 04:28:13;;;;;;;;;;;;;;;19.56;53.34;101912.97;2288915;77;51572;-73
2023/05/04 04:31:15;;;;;;;;;;;;;;;19.55;53.29;101908.61;2272718;77;50430;-75
2023/05/04 04:34:16;;;;;;;;;;;;;;;19.56;53.27;101902.74;2187606;80;51729;-71
2023/05/04 04:37:18;;;;;;;;;;;;;;;19.55;53.36;101901.06;2209058;80;50341;-71
2023/05/04 04:40:21;;;;;;;;;;;;;;;19.55;53.32;101900.56;2229826;80;50427;-72
2023/05/04 04:43:23;;;;;;;;;;;;;;;19.55;53.52;101903.75;2209390;80;51575;-72
2023/05/04 04:46:24;;;;;;;;;;;;;;;19.55;53.43;101902.41;2208530;80;51144;-72
2023/05/04 04:49:26;;;;;;;;;;;;;;;19.55;53.32;101898.38;2209427;79;50096;-76
2023/05/04 04:52:27;;;;;;;;;;;;;;;19.54;53.52;101898.02;2230038;80;51503;-76
2023/05/04 04:55:29;;;;;;;;;;;;;;;19.56;53.52;101899.55;2209341;80;50122;-76
2023/05/04 04:58:31;;;;;;;;;;;;;;;19.56;53.45;101903.58;2186151;80;49647;-76
2023/05/04 05:01:33;;;;;;;;;;;;;;;19.55;53.52;101903.75;2221778;78;51551;-76
2023/05/04 05:04:34;;;;;;;;;;;;;;;19.54;54.56;101904.73;2288786;77;50273;-76
2023/05/04 05:07:36;;;;;;;;;;;;;;;19.51;54.90;101899.18;2288734;77;51607;-75
2023/05/04 05:10:37;;;;;;;;;;;;;;;19.51;54.43;101899.69;2219480;79;51494;-75
2023/05/04 05:13:39;;;;;;;;;;;;;;;19.52;54.69;101899.55;2266115;77;50112;-75
2023/05/04 05:16:41;;;;;;;;;;;;;;;19.59;54.83;101895.70;2255952;77;51601;-75
2023/05/04 05:19:43;;;;;;;;;;;;;;;19.64;55.01;101896.06;2260666;78;51488;-75
2023/05/04 05:22:44;;;;;;;;;;;;;;;19.71;55.05;101896.31;2281018;77;52467;-75
2023/05/04 05:25:46;;;;;;;;;;;;;;;19.82;55.06;101902.73;2288504;77;51439;-76
2023/05/04 05:28:47;;;;;;;;;;;;;;;19.86;54.96;101899.22;2236474;78;51566;-76
2023/05/04 05:31:49;;;;;;;;;;;;;;;19.95;54.59;101898.27;2221530;78;50304;-76
2023/05/04 05:34:50;;;;;;;;;;;;;;;20.00;54.41;101899.45;2288751;77;50372;-76
2023/05/04 05:37:52;;;;;;;;;;;;;;;20.06;54.13;101896.61;2288864;77;50651;-76
2023/05/04 05:40:54;;;;;;;;;;;;;;;20.11;53.77;101894.79;2260765;78;51500;-76
2023/05/04 05:43:56;;;;;;;;;;;;;;;20.13;53.09;101892.28;2264432;78;50175;-76
2023/05/04 05:46:57;;;;;;;;;;;;;;;20.16;52.24;101897.83;2239709;78;49894;-76
2023/05/04 05:49:59;;;;;;;;;;;;;;;20.21;51.58;101898.18;2264634;78;51361;-75
2023/05/04 05:53:00;;;;;;;;;;;;;;;20.23;51.16;101899.70;2257080;78;51510;-77
2023/05/04 05:56:02;;;;;;;;;;;;;;;20.32;50.81;101897.03;2209163;80;51460;-76
2023/05/04 05:59:03;;;;;;;;;;;;;;;20.42;50.43;101887.84;2185902;80;52345;-76
2023/05/04 06:02:05;;;;;;;;;;;;;;;20.57;50.12;101889.38;2230024;79;50333;-76
2023/05/04 06:05:07;;;;;;;;;;;;;;;20.63;50.25;101883.88;2209147;80;50234;-77
2023/05/04 06:08:08;;;;;;;;;;;;;;;20.70;50.42;101888.06;2209354;80;52538;-77
2023/05/04 06:11:10;;;;;;;;;;;;;;;20.75;50.68;101897.81;2209338;80;51472;-75
2023/05/04 06:14:12;;;;;;;;;;;;;;;20.78;50.58;101888.06;2229850;80;51511;-76
2023/05/04 06:17:13;;;;;;;;;;;;;;;20.78;50.57;101888.92;2209305;80;51560;-77
2023/05/04 06:20:15;;;;;;;;;;;;;;;20.80;50.44;101888.23;2229853;80;51544;-77
2023/05/04 06:23:17;;;;;;;;;;;;;;;20.81;50.50;101884.55;2203981;79;52475;-76
2023/05/04 06:26:19;;;;;;;;;;;;;;;20.85;50.46;101883.70;2229760;80;50398;-77
2023/05/04 06:29:20;;;;;;;;;;;;;;;20.89;50.50;101889.09;2232112;79;51590;-77
2023/05/04 06:32:22;;;;;;;;;;;;;;;20.91;50.53;101888.42;2229871;80;51556;-77
2023/05/04 06:35:24;;;;;;;;;;;;;;;20.95;50.55;101892.44;2231833;79;52203;-77
2023/05/04 06:38:26;;;;;;;;;;;;;;;20.98;50.46;101901.52;2229984;80;50825;-77
2023/05/04 06:41:28;;;;;;;;;;;;;;;20.98;50.55;101894.78;2229940;80;50696;-77
2023/05/04 06:44:29;;;;;;;;;;;;;;;20.98;50.54;101897.48;2229779;80;50730;-77
2023/05/04 06:47:31;;;;;;;;;;;;;;;20.99;50.55;101889.77;2232660;79;50676;-77
2023/05/04 06:50:32;;;;;;;;;;;;;;;21.02;50.52;101894.80;2230064;80;50671;-77
2023/05/04 06:53:34;;;;;;;;;;;;;;;21.01;50.52;101899.83;2234321;78;51426;-76
2023/05/04 06:56:37;;;;;;;;;;;;;;;21.02;50.52;101900.18;2266471;78;51448;-77
2023/05/04 06:59:39;;;;;;;;;;;;;;;21.03;50.46;101896.98;2245990;78;50382;-77
2023/05/04 07:02:40;;;;;;;;;;;;;;;21.03;50.45;101885.70;2245397;78;50682;-77
2023/05/04 07:05:44;;;;;;;;;;;;;;;21.04;50.41;101890.09;2267533;78;50500;-76
2023/05/04 07:08:45;;;;;;;;;;;;;;;21.06;50.37;101891.25;2246354;78;22384;-76
2023/05/04 07:11:47;;;;;;;;;;;;;;;21.07;50.36;101893.78;2245435;78;51556;-76
2023/05/04 07:14:49;;;;;;;;;;;;;;;21.05;50.37;101891.77;2266467;78;50726;-76
2023/05/04 07:17:50;;;;;;;;;;;;;;;21.05;50.34;101899.84;2266669;78;51609;-77
2023/05/04 07:20:52;;;;;;;;;;;;;;;21.06;50.33;101893.44;2264471;78;50758;-77
2023/05/04 07:23:53;;;;;;;;;;;;;;;21.08;50.23;101893.28;2197425;80;49678;-77
2023/05/04 07:26:55;;;;;;;;;;;;;;;21.08;50.26;101894.63;2209252;80;50259;-77
2023/05/04 07:29:57;;;;;;;;;;;;;;;21.08;50.19;101880.66;2229862;80;51652;-77
2023/05/04 07:32:58;;;;;;;;;;;;;;;21.07;50.22;101877.64;2209491;80;51469;-78
2023/05/04 07:36:00;;;;;;;;;;;;;;;21.12;50.09;101877.14;2233194;79;51199;-77
2023/05/04 07:39:02;;;;;;;;;;;;;;;21.10;50.04;101875.95;2229668;80;51472;-76
2023/05/04 07:42:03;;;;;;;;;;;;;;;21.08;50.06;101877.97;2230108;80;51618;-77
2023/05/04 07:45:07;;;;;;;;;;;;;;;21.11;50.08;101872.75;2229834;80;51435;-76
2023/05/04 07:48:08;;;;;;;;;;;;;;;21.10;49.99;101867.87;2209516;80;50814;-77
2023/05/04 07:51:13;;;;;;;;;;;;;;;21.05;50.08;101866.20;2206065;80;53460;-77
2023/05/04 07:54:15;;;;;;;;;;;;;;;21.04;50.13;101867.22;2240673;78;50477;-77
2023/05/04 07:57:16;;;;;;;;;;;;;;;21.02;50.15;101865.20;2209314;80;50450;-75
2023/05/04 08:00:19;;;;;;;;;;;;;;;21.02;50.19;101857.64;2186290;80;51712;-74
2023/05/04 08:03:21;;;;;;;;;;;;;;;20.99;50.24;101861.51;2209742;80;53888;-74
2023/05/04 08:06:22;;;;;;;;;;;;;;;20.96;50.29;101861.85;2209250;80;51507;-75
2023/05/04 08:09:24;;;;;;;;;;;;;;;20.94;50.31;101859.83;2229978;80;51398;-75
2023/05/04 08:12:25;;;;;;;;;;;;;;;20.95;50.31;101855.28;2185723;80;51243;-74
2023/05/04 08:15:27;;;;;;;;;;;;;;;20.93;50.37;101850.06;2209160;80;51565;-75
2023/05/04 08:18:29;;;;;;;;;;;;;;;20.91;50.30;101850.76;2229883;80;51454;-76
2023/05/04 08:21:31;;;;;;;;;;;;;;;20.92;50.30;101849.73;2229925;78;50362;-75
2023/05/04 08:24:32;;;;;;;;;;;;;;;20.92;50.33;101855.62;2210669;78;51779;-75
2023/05/04 08:27:34;;;;;;;;;;;;;;;20.91;50.27;101851.23;2266648;78;51462;-75
2023/05/04 08:30:37;;;;;;;;;;;;;;;20.90;50.28;101849.06;2245755;78;49695;-75
2023/05/04 08:33:39;;;;;;;;;;;;;;;20.90;50.26;101840.16;2266754;78;51558;-76
2023/05/04 08:36:40;;;;;;;;;;;;;;;20.89;50.16;101848.73;2221151;78;52630;-75
2023/05/04 08:39:42;;;;;;;;;;;;;;;20.88;50.21;101837.14;2266795;78;51412;-76
2023/05/04 08:42:46;;;;;;;;;;;;;;;20.95;50.09;101844.52;2266690;78;51357;-75
2023/05/04 08:45:48;;;;;;;;;;;;;;;20.92;50.13;101841.66;2266796;78;22592;-75
2023/05/04 08:48:50;;;;;;;;;;;;;;;20.93;50.04;101839.30;2266737;78;51653;-75
2023/05/04 08:51:51;;;;;;;;;;;;;;;20.91;50.13;101836.44;2236321;78;51717;-75
2023/05/04 08:54:56;;;;;;;;;;;;;;;20.86;50.16;101833.77;2233543;78;51590;-75
2023/05/04 08:57:57;;;;;;;;;;;;;;;20.83;50.18;101826.05;2230013;80;50696;-76
2023/05/04 09:00:59;;;;;;;;;;;;;;;20.83;50.20;101822.02;2230066;80;51555;-76
2023/05/04 09:04:01;;;;;;;;;;;;;;;20.80;50.20;101813.42;2233385;79;51768;-75
2023/05/04 09:07:03;;;;;;;;;;;;;;;20.78;50.28;101823.02;2230011;80;50695;-75
2023/05/04 09:10:05;;;;;;;;;;;;;;;20.75;50.34;101822.50;2230009;80;50530;-78
2023/05/04 09:13:07;;;;;;;;;;;;;;;20.76;50.31;101821.52;2209446;80;50375;-78
2023/05/04 09:16:08;;;;;;;;;;;;;;;20.74;50.35;101824.87;2233464;79;52518;-75
2023/05/04 09:19:16;;;;;;;;;;;;;;;20.72;50.36;101823.68;2230031;80;51573;-76
2023/05/04 09:22:18;;;;;;;;;;;;;;;20.70;50.40;101823.52;2221864;80;50796;-74
2023/05/04 09:25:20;;;;;;;;;;;;;;;20.69;50.44;101824.53;2241515;78;51620;-74
2023/05/04 09:28:23;;;;;;;;;;;;;;;20.66;50.40;101819.81;2186078;80;51696;-78
2023/05/04 09:31:25;;;;;;;;;;;;;;;20.65;50.45;101816.80;2228411;79;50777;-75
2023/05/04 09:34:26;;;;;;;;;;;;;;;20.64;50.43;101813.77;2229970;80;50430;-75
2023/05/04 09:37:28;;;;;;;;;;;;;;;20.65;50.44;101817.28;2209327;80;49792;-76
2023/05/04 09:40:31;;;;;;;;;;;;;;;20.63;50.46;101808.57;2185632;80;51771;-74
2023/05/04 09:43:37;;;;;;;;;;;;;;;20.58;50.53;101807.72;2229079;79;50286;-75
2023/05/04 09:46:38;;;;;;;;;;;;;;;20.58;50.55;101805.55;2229945;80;50437;-75
2023/05/04 09:49:40;;;;;;;;;;;;;;;20.57;50.65;101812.75;2230049;80;50264;-75
2023/05/04 09:52:42;;;;;;;;;;;;;;;20.58;50.61;101808.23;2197701;78;49497;-75
2023/05/04 09:55:45;;;;;;;;;;;;;;;20.58;50.55;101801.52;2258407;78;51731;-75
2023/05/04 09:58:47;;;;;;;;;;;;;;;20.57;50.59;101800.64;2267012;78;51590;-74
2023/05/04 10:01:49;;;;;;;;;;;;;;;20.55;50.63;101794.62;2267217;78;50803;-74
2023/05/04 10:04:51;;;;;;;;;;;;;;;20.55;50.63;101786.55;2221598;78;52755;-74
2023/05/04 10:07:52;;;;;;;;;;;;;;;20.54;50.63;101784.86;2267270;78;50691;-75
2023/05/04 10:10:54;;;;;;;;;;;;;;;20.52;50.67;101781.45;2267674;78;52172;-75
2023/05/04 10:13:56;;;;;;;;;;;;;;;20.52;50.66;101777.42;2246579;78;51483;-74
2023/05/04 10:17:02;;;;;;;;;;;;;;;20.51;50.70;101775.75;2222797;78;51799;-75
2023/05/04 10:20:21;;;;;;;;;;;;;;;20.53;50.62;101784.50;2268431;78;51568;-75
2023/05/04 10:23:31;;;;;;;;;;;;;;;20.50;50.71;101767.84;2258245;78;50115;-74
2023/05/04 10:26:34;;;;;;;;;;;;;;;20.49;50.76;101756.77;2263890;78;50738;-75
2023/05/04 10:29:36;;;;;;;;;;;;;;;20.49;50.72;101753.56;2243573;78;51813;-74
2023/05/04 10:32:38;;;;;;;;;;;;;;;20.49;50.70;101744.67;2293271;76;50778;-75
2023/05/04 10:35:50;;;;;;;;;;;;;;;20.49;50.71;101742.81;2290060;77;51547;-74
2023/05/04 10:38:52;;;;;;;;;;;;;;;20.52;50.68;101748.36;2261910;78;50458;-74
2023/05/04 10:42:00;;;;;;;;;;;;;;;20.48;50.74;101743.84;2266817;77;52557;-75
2023/05/04 10:45:02;;;;;;;;;;;;;;;20.49;50.73;101740.63;2259797;78;51038;-73
2023/05/04 10:48:04;;;;;;;;;;;;;;;20.47;50.73;101742.64;2218498;79;50705;-74
2023/05/04 10:51:05;;;;;;;;;;;;;;;20.47;50.68;101733.23;2247796;79;50248;-74
2023/05/04 10:54:08;;;;;;;;;;;;;;;20.46;50.64;101725.68;2242384;78;50391;-74
2023/05/04 10:57:11;;;;;;;;;;;;;;;20.45;50.63;101722.67;2255642;78;50742;-76
2023/05/04 11:00:13;;;;;;;;;;;;;;;20.44;50.57;101717.77;2247785;77;51103;-75
2023/05/04 11:03:14;;;;;;;;;;;;;;;20.45;50.55;101719.98;2261567;78;50334;-74
2023/05/04 11:06:21;;;;;;;;;;;;;;;20.45;50.54;101710.57;2216080;78;50145;-75
2023/05/04 11:09:22;;;;;;;;;;;;;;;20.45;50.54;101707.88;2245596;77;50735;-72
2023/05/04 11:12:24;;;;;;;;;;;;;;;20.44;50.63;101698.95;2260714;78;50793;-72
2023/05/04 11:15:26;;;;;;;;;;;;;;;20.43;50.65;101699.14;2254066;78;51436;-71
2023/05/04 11:18:32;;;;;;;;;;;;;;;20.41;50.72;101695.78;2183562;80;51731;-73
2023/05/04 11:21:34;;;;;;;;;;;;;;;20.42;50.75;101695.63;2231104;78;51597;-71
2023/05/04 11:24:36;;;;;;;;;;;;;;;20.41;50.79;101685.02;2268081;77;51618;-72
2023/05/04 11:27:38;;;;;;;;;;;;;;;20.42;50.85;101684.00;2240262;79;51581;-72
2023/05/04 11:30:42;;;;;;;;;;;;;;;20.41;50.91;101683.68;2258179;78;51500;-71
2023/05/04 11:33:47;;;;;;;;;;;;;;;20.41;50.95;101687.20;2246247;78;22954;-71
2023/05/04 11:36:48;;;;;;;;;;;;;;;20.41;50.94;101686.38;2246457;79;50413;-71
2023/05/04 11:39:50;;;;;;;;;;;;;;;20.41;50.99;101676.45;2243211;79;50509;-71
2023/05/04 11:42:52;;;;;;;;;;;;;;;20.43;50.99;101674.95;2256670;78;51205;-72
2023/05/04 11:45:56;;;;;;;;;;;;;;;20.44;50.97;101673.92;2239635;79;51561;-71
2023/05/04 11:48:58;;;;;;;;;;;;;;;20.44;50.88;101663.17;2240720;78;22993;-74
2023/05/04 11:52:09;;;;;;;;;;;;;;;20.43;50.89;101661.51;2239306;79;51493;-71
2023/05/04 11:55:16;;;;;;;;;;;;;;;20.42;50.92;101662.50;2217071;79;52416;-70
2023/05/04 11:58:19;;;;;;;;;;;;;;;20.41;50.92;101667.55;2237658;79;51411;-72
2023/05/04 12:01:21;;;;;;;;;;;;;;;20.42;50.93;101667.87;2277224;77;51587;-73
2023/05/04 12:04:23;;;;;;;;;;;;;;;20.39;50.84;101655.61;2258724;78;50761;-75
2023/05/04 12:07:25;;;;;;;;;;;;;;;20.40;50.86;101653.79;2255850;78;51630;-72
2023/05/04 12:10:27;;;;;;;;;;;;;;;20.40;50.77;101643.87;2248678;77;51512;-74
2023/05/04 12:13:28;;;;;;;;;;;;;;;20.40;50.79;101639.00;2221665;79;50277;-72
2023/05/04 12:16:30;;;;;;;;;;;;;;;20.41;50.74;101644.19;2221982;80;50825;-72
2023/05/04 12:19:32;;;;;;;;;;;;;;;20.41;50.77;101637.98;2209582;78;49633;-72
2023/05/04 12:22:34;;;;;;;;;;;;;;;20.40;50.80;101639.84;2227902;78;50318;-71
2023/05/04 12:25:36;;;;;;;;;;;;;;;20.41;50.85;101640.67;2228469;78;51556;-73
2023/05/04 12:28:38;;;;;;;;;;;;;;;20.41;50.83;101637.47;2233137;78;51502;-71
2023/05/04 12:31:39;;;;;;;;;;;;;;;20.40;50.88;101639.00;2201603;80;52439;-71
2023/05/04 12:34:41;;;;;;;;;;;;;;;20.42;50.85;101631.58;2210696;78;51464;-72
2023/05/04 12:37:43;;;;;;;;;;;;;;;20.43;50.85;101626.56;2249826;78;51546;-71
2023/05/04 12:40:45;;;;;;;;;;;;;;;20.42;50.90;101632.92;2219963;79;51609;-71
2023/05/04 12:43:46;;;;;;;;;;;;;;;20.45;50.94;101632.61;2253558;78;52536;-72
2023/05/04 12:46:48;;;;;;;;;;;;;;;20.41;50.98;101630.75;2274952;78;51481;-71
2023/05/04 12:49:50;;;;;;;;;;;;;;;20.46;50.95;101624.87;2264839;78;51576;-71
2023/05/04 12:52:51;;;;;;;;;;;;;;;20.43;50.98;101627.91;2262037;78;50694;-72
2023/05/04 12:55:53;;;;;;;;;;;;;;;20.42;50.98;101623.52;2241752;78;51459;-71
2023/05/04 12:58:55;;;;;;;;;;;;;;;20.44;50.97;101625.53;2281177;78;50655;-72
2023/05/04 13:01:56;;;;;;;;;;;;;;;20.44;50.95;101618.81;2248420;78;50336;-73
2023/05/04 13:04:58;;;;;;;;;;;;;;;20.42;50.93;101616.80;2233444;78;50459;-71
2023/05/04 13:08:00;;;;;;;;;;;;;;;20.43;50.91;101613.95;2252612;77;51716;-71
2023/05/04 13:11:01;;;;;;;;;;;;;;;20.46;50.87;101603.36;2242693;78;51497;-76
2023/05/04 13:14:03;;;;;;;;;;;;;;;20.44;50.89;101607.55;2277366;78;51665;-74
2023/05/04 13:17:05;;;;;;;;;;;;;;;20.43;50.93;101601.02;2238480;79;51384;-74
2023/05/04 13:20:07;;;;;;;;;;;;;;;20.43;50.83;101599.67;2252205;78;52717;-76
2023/05/04 13:23:09;;;;;;;;;;;;;;;20.43;50.78;101594.30;2238691;79;50373;-75
2023/05/04 13:26:11;;;;;;;;;;;;;;;20.41;50.67;101590.42;2270478;77;51536;-75
2023/05/04 13:29:12;;;;;;;;;;;;;;;20.43;50.61;101583.03;2222456;80;50406;-74
2023/05/04 13:32:14;;;;;;;;;;;;;;;20.44;50.59;101583.87;2226122;79;51254;-75
2023/05/04 13:35:15;;;;;;;;;;;;;;;20.44;50.61;101578.49;2222601;80;50315;-74
2023/05/04 13:38:17;;;;;;;;;;;;;;;20.42;50.58;101575.99;2251048;78;51629;-76
2023/05/04 13:41:20;;;;;;;;;;;;;;;20.43;50.70;101576.83;2251251;78;50481;-74
2023/05/04 13:44:22;;;;;;;;;;;;;;;20.40;50.71;101568.60;2251102;78;51045;-74
2023/05/04 13:47:23;;;;;;;;;;;;;;;20.42;50.70;101567.93;2222571;80;50756;-75
2023/05/04 13:50:25;;;;;;;;;;;;;;;20.43;50.71;101560.19;2222657;80;50694;-74
2023/05/04 13:53:26;;;;;;;;;;;;;;;20.42;50.71;101554.48;2226594;79;51431;-75
2023/05/04 13:56:28;;;;;;;;;;;;;;;20.42;50.76;101546.91;2221711;79;51624;-76
2023/05/04 13:59:30;;;;;;;;;;;;;;;20.42;50.76;101542.39;2222583;80;50654;-75
2023/05/04 14:02:32;;;;;;;;;;;;;;;20.43;50.73;101535.16;2240691;79;51467;-75
2023/05/04 14:05:34;;;;;;;;;;;;;;;20.47;50.69;101539.67;2222253;80;50728;-76
2023/05/04 14:08:36;;;;;;;;;;;;;;;20.46;50.74;101528.09;2178955;80;52556;-75
2023/05/04 14:11:37;;;;;;;;;;;;;;;20.45;50.74;101525.91;2240991;79;50289;-75
2023/05/04 14:14:39;;;;;;;;;;;;;;;20.48;50.72;101523.89;2202266;80;50112;-73
2023/05/04 14:17:40;;;;;;;;;;;;;;;20.48;50.75;101516.66;2240659;79;50356;-76
2023/05/04 14:20:42;;;;;;;;;;;;;;;20.47;50.82;101513.62;2178828;80;51759;-76
2023/05/04 14:23:45;;;;;;;;;;;;;;;20.45;51.00;101507.09;2249191;78;51653;-75
2023/05/04 14:26:46;;;;;;;;;;;;;;;20.44;51.09;101504.05;2259124;78;50542;-77
2023/05/04 14:29:48;;;;;;;;;;;;;;;20.44;51.22;101497.84;2277798;78;50383;-75
2023/05/04 14:32:54;;;;;;;;;;;;;;;20.44;51.25;101495.16;2214240;78;51561;-76
2023/05/04 14:35:55;;;;;;;;;;;;;;;20.43;51.37;101490.80;2277791;78;50128;-76
2023/05/04 14:38:59;;;;;;;;;;;;;;;20.43;51.35;101483.57;2238262;78;50463;-76
2023/05/04 14:42:01;;;;;;;;;;;;;;;20.46;51.34;101485.07;2222403;79;23754;-74
2023/05/04 14:45:03;;;;;;;;;;;;;;;20.48;51.31;101479.53;2229715;78;51106;-74
2023/05/04 14:48:05;;;;;;;;;;;;;;;20.45;51.43;101484.23;2258296;78;51537;-74
2023/05/04 14:51:07;;;;;;;;;;;;;;;20.46;51.50;101477.01;2259111;78;50322;-74
2023/05/04 14:54:08;;;;;;;;;;;;;;;20.46;51.53;101471.63;2217102;80;51454;-75
2023/05/04 14:57:10;;;;;;;;;;;;;;;20.45;51.58;101469.45;2200681;80;49243;-75
2023/05/04 15:00:13;;;;;;;;;;;;;;;20.45;51.64;101468.63;2224813;80;51761;-75
2023/05/04 15:03:15;;;;;;;;;;;;;;;20.48;51.63;101470.13;2222430;80;51593;-77
2023/05/04 15:06:16;;;;;;;;;;;;;;;20.47;51.66;101457.67;2222332;80;51511;-75
2023/05/04 15:09:18;;;;;;;;;;;;;;;20.47;51.74;101459.84;2224907;80;52319;-74
2023/05/04 15:12:20;;;;;;;;;;;;;;;20.49;51.75;101460.52;2208608;80;51430;-76
2023/05/04 15:15:21;;;;;;;;;;;;;;;20.48;51.75;101450.79;2222492;80;51569;-75
2023/05/04 15:18:24;;;;;;;;;;;;;;;20.49;51.71;101447.08;2222544;80;51518;-75
2023/05/04 15:21:26;;;;;;;;;;;;;;;20.46;51.85;101447.44;2224868;80;52424;-75
2023/05/04 15:24:28;;;;;;;;;;;;;;;20.48;51.85;101438.70;2200724;80;52489;-75
2023/05/04 15:27:29;;;;;;;;;;;;;;;20.48;51.83;101437.86;2204332;80;51458;-76
2023/05/04 15:30:31;;;;;;;;;;;;;;;20.49;51.91;101434.98;2222453;80;50694;-78
2023/05/04 15:33:33;;;;;;;;;;;;;;;20.51;51.83;101433.47;2178878;80;52133;-76